Time,TemperatureF,DewpointF,PressureIn,WindDirection,WindDirectionDegrees,WindSpeedMPH,WindSpeedGustMPH,Humidity,HourlyPrecipIn,Conditions,Clouds,dailyrainin,SolarRadiationWatts/m^2,SoftwareType,DateUTC
2013-02-01 00:21:00,17.0,13.0,-100.00,East,81,0.0,2.0,85,-99.99,,,0.00,1.000000,,2013-02-01 08:21:00,
2013-02-01 01:11:00,15.0,12.0,-100.00,East,100,0.0,2.0,86,-99.99,,,0.00,1.000000,,2013-02-01 09:11:00,
2013-02-01 02:11:00,14.0,11.0,-100.00,NE,47,0.0,2.0,86,-99.99,,,0.00,1.000000,,2013-02-01 10:11:00,
2013-02-01 02:21:00,14.0,11.0,-100.00,NE,47,0.0,2.0,86,-99.99,,,0.00,1.000000,,2013-02-01 10:21:00,
2013-02-01 03:22:00,13.0,9.0,-100.00,South,190,0.0,2.0,85,-99.99,,,-99.99,1.000000,,2013-02-01 11:22:00,
2013-02-01 04:12:00,12.0,8.0,-100.00,SSE,149,0.0,0.0,84,-99.99,,,0.00,1.000000,,2013-02-01 12:12:00,
2013-02-01 04:22:00,12.0,8.0,-100.00,SSE,149,0.0,0.0,84,-99.99,,,0.00,1.000000,,2013-02-01 12:22:00,
2013-02-01 05:11:00,11.0,7.0,-100.00,SE,143,0.0,0.0,84,-99.99,,,0.00,1.000000,,2013-02-01 13:11:00,
2013-02-01 05:21:00,11.0,7.0,-100.00,SE,143,0.0,0.0,84,-99.99,,,0.00,1.000000,,2013-02-01 13:21:00,
2013-02-01 06:11:00,11.0,7.0,-100.00,SSE,154,0.0,0.0,84,-99.99,,,0.00,1.000000,,2013-02-01 14:11:00,
2013-02-01 08:11:00,11.0,7.0,-100.00,West,267,0.0,2.0,82,-99.99,,,0.00,7.000000,,2013-02-01 16:11:00,
2013-02-01 09:22:00,24.0,18.0,-100.00,SSE,152,1.0,2.0,77,-99.99,,,0.00,120.000000,,2013-02-01 17:22:00,
2013-02-01 09:32:00,24.0,18.0,-100.00,SSE,152,1.0,2.0,77,-99.99,,,0.00,120.000000,,2013-02-01 17:32:00,
2013-02-01 10:12:00,43.0,15.0,-100.00,ESE,108,0.0,4.0,32,0.00,,,0.00,344.000000,,2013-02-01 18:12:00,
2013-02-01 10:22:00,43.0,15.0,-100.00,ESE,108,0.0,4.0,32,0.00,,,0.00,344.000000,,2013-02-01 18:22:00,
2013-02-01 10:51:00,49.0,9.0,-100.00,North,5,2.0,4.0,19,0.00,,,0.00,511.000000,,2013-02-01 18:51:00,
2013-02-01 11:11:00,49.0,9.0,-100.00,North,5,2.0,4.0,19,0.00,,,0.00,511.000000,,2013-02-01 19:11:00,
2013-02-01 11:21:00,49.0,9.0,-100.00,North,5,2.0,4.0,19,0.00,,,0.00,511.000000,,2013-02-01 19:21:00,
2013-02-01 11:41:00,49.0,9.0,-100.00,North,5,2.0,4.0,19,0.00,,,0.00,511.000000,,2013-02-01 19:41:00,
2013-02-01 12:11:00,55.0,5.0,-100.00,ESE,105,2.0,5.0,13,0.00,,,0.00,592.000000,,2013-02-01 20:11:00,
2013-02-01 13:11:00,55.0,8.0,-100.00,NNE,29,4.0,7.0,15,-99.99,,,0.00,612.000000,,2013-02-01 21:11:00,
2013-02-01 13:21:00,55.0,8.0,-100.00,NNE,29,4.0,7.0,15,-99.99,,,0.00,612.000000,,2013-02-01 21:21:00,
2013-02-01 13:51:00,54.0,18.0,-100.00,NNE,15,3.0,8.0,24,-99.99,,,0.00,565.000000,,2013-02-01 21:51:00,
2013-02-01 14:21:00,54.0,18.0,-100.00,NNE,15,3.0,8.0,24,-99.99,,,0.00,565.000000,,2013-02-01 22:21:00,
2013-02-01 14:32:00,54.0,18.0,-100.00,NNE,15,3.0,8.0,24,-99.99,,,0.00,565.000000,,2013-02-01 22:32:00,
2013-02-01 14:42:00,54.0,18.0,-100.00,NNE,15,3.0,8.0,24,-99.99,,,0.00,565.000000,,2013-02-01 22:42:00,
2013-02-01 15:11:00,56.0,18.0,-100.00,North,9,3.0,5.0,22,0.00,,,0.00,463.000000,,2013-02-01 23:11:00,
2013-02-01 15:21:00,56.0,18.0,-100.00,North,9,3.0,5.0,22,0.00,,,0.00,463.000000,,2013-02-01 23:21:00,
2013-02-01 16:11:00,56.0,13.0,-100.00,NE,44,2.0,5.0,18,-99.99,,,0.00,290.000000,,2013-02-02 00:11:00,
2013-02-01 16:21:00,56.0,13.0,-100.00,NE,44,2.0,5.0,18,-99.99,,,0.00,290.000000,,2013-02-02 00:21:00,
2013-02-01 16:51:00,40.0,23.0,-100.00,SW,217,0.0,4.0,50,-99.99,,,0.00,47.000000,,2013-02-02 00:51:00,
2013-02-01 17:11:00,40.0,23.0,-100.00,SW,217,0.0,4.0,50,-99.99,,,0.00,47.000000,,2013-02-02 01:11:00,
2013-02-01 17:21:00,40.0,23.0,-100.00,SW,217,0.0,4.0,50,-99.99,,,0.00,47.000000,,2013-02-02 01:21:00,
2013-02-01 17:31:00,40.0,23.0,-100.00,SW,217,0.0,4.0,50,-99.99,,,0.00,47.000000,,2013-02-02 01:31:00,
2013-02-01 17:41:00,40.0,23.0,-100.00,SW,217,0.0,4.0,50,-99.99,,,0.00,47.000000,,2013-02-02 01:41:00,
2013-02-01 18:11:00,30.0,21.0,-100.00,WSW,237,0.0,2.0,69,0.00,,,0.00,6.000000,,2013-02-02 02:11:00,
2013-02-01 18:21:00,30.0,21.0,-100.00,WSW,237,0.0,2.0,69,0.00,,,0.00,6.000000,,2013-02-02 02:21:00,
2013-02-01 19:11:00,25.0,19.0,-100.00,North,4,0.0,2.0,77,0.00,,,0.00,1.000000,,2013-02-02 03:11:00,
2013-02-01 19:21:00,25.0,19.0,-100.00,North,4,0.0,2.0,77,0.00,,,0.00,1.000000,,2013-02-02 03:21:00,
2013-02-01 20:11:00,25.0,19.0,-100.00,SSE,152,0.0,2.0,78,-99.99,,,0.00,1.000000,,2013-02-02 04:11:00,
2013-02-01 20:21:00,25.0,19.0,-100.00,SSE,152,0.0,2.0,78,-99.99,,,0.00,1.000000,,2013-02-02 04:21:00,
2013-02-01 21:22:00,24.0,19.0,-100.00,WSW,245,0.0,2.0,81,-99.99,,,0.00,1.000000,,2013-02-02 05:22:00,
2013-02-01 22:12:00,23.0,19.0,-100.00,South,177,0.0,2.0,83,-99.99,,,0.00,1.000000,,2013-02-02 06:12:00,
2013-02-01 22:21:00,23.0,19.0,-100.00,South,177,0.0,2.0,83,-99.99,,,0.00,1.000000,,2013-02-02 06:21:00,
2013-02-01 23:11:00,22.0,18.0,-100.00,WNW,303,0.0,2.0,85,-99.99,,,0.00,1.000000,,2013-02-02 07:11:00,